createdAt,value
2022-08-29T00:00:39.804Z,7.27
2022-08-29T00:02:03.384Z,7.34
2022-08-29T00:03:27.408Z,7.04
2022-08-29T00:06:04.120Z,7.23
2022-08-29T00:07:25.776Z,6.25
2022-08-29T00:08:47.732Z,7.29
2022-08-29T00:10:10.834Z,6.57
2022-08-29T00:11:32.200Z,6.65
2022-08-29T00:12:53.795Z,6.58
2022-08-29T00:14:20.962Z,7.28
2022-08-29T00:15:44.598Z,6.86
2022-08-29T00:17:02.525Z,7.15
2022-08-29T00:18:23.834Z,7.08
2022-08-29T00:19:45.054Z,7.30
2022-08-29T00:21:08.489Z,7.48
2022-08-29T00:22:29.815Z,7.44
2022-08-29T00:23:53.241Z,7.58
2022-08-29T00:25:15.122Z,7.87
2022-08-29T00:26:36.846Z,7.64
2022-08-29T00:27:58.211Z,6.86
2022-08-29T00:29:19.863Z,7.78
2022-08-29T00:30:41.098Z,8.04
2022-08-29T00:32:03.126Z,7.50
2022-08-29T00:33:24.300Z,7.59
2022-08-29T00:34:45.780Z,7.43
2022-08-29T00:36:11.712Z,7.04
2022-08-29T00:37:32.984Z,7.77
2022-08-29T00:38:54.379Z,7.43
2022-08-29T00:40:18.855Z,7.44
2022-08-29T00:41:40.414Z,6.88
2022-08-29T00:43:02.050Z,7.43
2022-08-29T00:44:23.153Z,7.71
2022-08-29T00:47:06.925Z,7.62
2022-08-29T00:48:28.416Z,6.76
2022-08-29T00:49:53.167Z,6.74
2022-08-29T00:51:16.662Z,6.72
2022-08-29T00:52:40.106Z,7.52
2022-08-29T00:54:05.014Z,6.36
2022-08-29T00:55:29.130Z,6.67
2022-08-29T00:56:51.387Z,7.08
2022-08-29T00:58:16.185Z,4.35
2022-08-29T00:59:38.382Z,5.43
2022-08-29T01:00:59.828Z,5.73
2022-08-29T01:02:21.451Z,5.64
2022-08-29T01:03:43.266Z,5.76
2022-08-29T01:05:07.440Z,5.30
2022-08-29T01:06:28.982Z,4.88
2022-08-29T01:07:50.486Z,4.92
2022-08-29T01:09:11.726Z,5.30
2022-08-29T01:10:34.814Z,4.93
2022-08-29T01:11:56.089Z,5.20
2022-08-29T01:13:17.576Z,5.24
2022-08-29T01:14:40.149Z,5.16
2022-08-29T01:16:02.433Z,5.04
2022-08-29T01:17:31.902Z,4.69
2022-08-29T01:20:21.773Z,4.82
2022-08-29T01:23:33.473Z,5.35
2022-08-29T01:24:55.035Z,5.03
2022-08-29T01:26:17.617Z,6.17
2022-08-29T01:27:40.331Z,5.70
2022-08-29T01:29:02.165Z,6.01
2022-08-29T01:30:24.066Z,6.34
2022-08-29T01:31:57.166Z,6.53
2022-08-29T01:33:11.269Z,6.81
2022-08-29T01:34:33.148Z,6.91
2022-08-29T01:35:54.542Z,6.46
2022-08-29T01:37:16.196Z,7.18
2022-08-29T01:38:38.023Z,6.67
2022-08-29T01:39:59.236Z,6.88
2022-08-29T01:41:22.120Z,6.98
2022-08-29T01:42:44.261Z,6.58
2022-08-29T01:45:20.910Z,7.28
2022-08-29T01:46:42.829Z,7.39
2022-08-29T01:48:04.287Z,7.19
2022-08-29T01:49:25.724Z,6.81
2022-08-29T01:50:47.267Z,7.08
2022-08-29T01:52:08.667Z,6.73
2022-08-29T01:53:30.008Z,6.64
2022-08-29T01:54:51.398Z,5.98
2022-08-29T01:57:26.886Z,6.04
2022-08-29T01:58:49.135Z,6.20
2022-08-29T02:00:11.561Z,6.29
2022-08-29T02:01:34.834Z,6.47
2022-08-29T02:02:56.189Z,5.91
2022-08-29T02:04:17.778Z,6.16
2022-08-29T02:05:39.153Z,5.67
2022-08-29T02:07:00.735Z,6.16
2022-08-29T02:08:21.923Z,6.32
2022-08-29T02:09:45.771Z,5.87
2022-08-29T02:11:07.428Z,5.78
2022-08-29T02:12:28.813Z,5.59
2022-08-29T02:13:53.324Z,6.05
2022-08-29T02:15:14.465Z,6.32
2022-08-29T02:16:36.482Z,5.74
2022-08-29T02:17:58.100Z,6.02
2022-08-29T02:19:19.959Z,5.77
2022-08-29T02:20:41.550Z,5.46
2022-08-29T02:22:03.138Z,6.16
2022-08-29T02:23:30.865Z,6.72
2022-08-29T02:24:47.723Z,6.08
2022-08-29T02:26:10.020Z,6.21
2022-08-29T02:27:31.294Z,6.20
2022-08-29T02:28:52.815Z,6.65
2022-08-29T02:30:17.353Z,5.96
2022-08-29T02:31:39.455Z,5.53
2022-08-29T02:33:00.845Z,4.56
2022-08-29T02:34:23.903Z,4.39
2022-08-29T02:35:46.030Z,4.64
2022-08-29T02:37:08.220Z,4.32
2022-08-29T02:38:29.459Z,4.66
2022-08-29T02:39:50.998Z,4.67
2022-08-29T02:41:14.378Z,4.55
2022-08-29T02:42:36.936Z,4.92
2022-08-29T02:45:10.246Z,3.81
2022-08-29T02:46:33.274Z,5.47
2022-08-29T02:47:54.459Z,5.40
2022-08-29T02:49:15.884Z,6.21
2022-08-29T02:51:52.830Z,5.59
2022-08-29T02:53:15.790Z,5.73
2022-08-29T02:54:36.955Z,5.78
2022-08-29T02:55:58.160Z,5.99
2022-08-29T02:57:19.901Z,6.09
2022-08-29T02:58:41.387Z,5.89
2022-08-29T03:01:19.855Z,6.12
2022-08-29T03:02:42.180Z,6.64
2022-08-29T03:04:03.645Z,6.24
2022-08-29T03:05:27.877Z,6.17
2022-08-29T03:06:49.122Z,5.81
2022-08-29T03:08:11.271Z,6.25
2022-08-29T03:09:32.942Z,6.06
2022-08-29T03:10:54.463Z,6.36
2022-08-29T03:12:15.649Z,6.08
2022-08-29T03:13:36.718Z,6.17
2022-08-29T03:14:58.240Z,5.67
2022-08-29T03:16:20.388Z,4.52
2022-08-29T03:17:43.011Z,5.77
2022-08-29T03:19:04.323Z,6.27
2022-08-29T03:20:26.002Z,6.27
2022-08-29T03:21:47.093Z,5.62
2022-08-29T03:23:08.243Z,6.10
2022-08-29T03:24:29.637Z,6.58
2022-08-29T03:25:51.063Z,6.42
2022-08-29T03:27:12.696Z,6.74
2022-08-29T03:28:34.113Z,6.15
2022-08-29T03:29:56.519Z,6.23
2022-08-29T03:31:17.925Z,6.27
2022-08-29T03:32:39.233Z,6.64
2022-08-29T03:34:00.673Z,6.71
2022-08-29T03:35:22.138Z,6.36
2022-08-29T03:36:43.357Z,6.16
2022-08-29T03:38:04.553Z,6.44
2022-08-29T03:39:26.387Z,6.01
2022-08-29T03:40:47.852Z,6.32
2022-08-29T03:42:09.265Z,6.33
2022-08-29T03:43:30.883Z,8.57
2022-08-29T03:44:52.275Z,6.58
2022-08-29T03:46:15.294Z,6.75
2022-08-29T03:47:36.379Z,6.76
2022-08-29T03:48:57.717Z,7.29
2022-08-29T03:50:21.087Z,7.23
2022-08-29T03:51:42.436Z,6.57
2022-08-29T03:53:03.397Z,7.16
2022-08-29T03:54:26.422Z,7.20
2022-08-29T03:55:47.613Z,7.44
2022-08-29T03:57:09.403Z,7.63
2022-08-29T03:58:30.782Z,7.59
2022-08-29T03:59:54.235Z,7.13
2022-08-29T04:02:35.999Z,6.58
2022-08-29T04:03:57.726Z,7.33
2022-08-29T04:05:19.238Z,7.63
2022-08-29T04:06:40.648Z,7.80
2022-08-29T04:08:02.175Z,7.93
2022-08-29T04:09:23.595Z,7.22
2022-08-29T04:10:46.973Z,6.87
2022-08-29T04:12:08.833Z,6.97
2022-08-29T04:13:31.244Z,7.44
2022-08-29T04:14:53.515Z,9.68
2022-08-29T04:16:18.904Z,7.86
2022-08-29T04:17:41.254Z,7.62
2022-08-29T04:19:03.100Z,6.98
2022-08-29T04:20:27.560Z,6.31
2022-08-29T04:21:50.328Z,7.47
2022-08-29T04:23:12.359Z,7.35
2022-08-29T04:24:33.882Z,7.26
2022-08-29T04:26:12.488Z,6.44
2022-08-29T04:27:18.576Z,6.68
2022-08-29T04:28:42.054Z,6.82
2022-08-29T04:30:07.845Z,6.79
2022-08-29T04:31:29.062Z,6.80
2022-08-29T04:32:50.510Z,7.15
2022-08-29T04:34:12.891Z,7.96
2022-08-29T04:35:34.010Z,7.84
2022-08-29T04:36:56.205Z,9.83
2022-08-29T04:38:19.024Z,8.88
2022-08-29T04:39:50.569Z,9.42
2022-08-29T04:41:12.290Z,10.51
2022-08-29T04:42:38.470Z,9.19
2022-08-29T04:44:00.189Z,9.73
2022-08-29T04:45:25.858Z,9.18
2022-08-29T04:46:48.601Z,9.72
2022-08-29T04:48:09.761Z,9.89
2022-08-29T04:49:32.436Z,8.88
2022-08-29T04:50:57.990Z,10.81
2022-08-29T04:52:19.541Z,9.76
2022-08-29T04:53:40.931Z,8.52
2022-08-29T04:55:04.278Z,8.70
2022-08-29T04:56:26.027Z,6.82
2022-08-29T04:57:49.996Z,7.82
2022-08-29T04:59:11.311Z,7.60
2022-08-29T05:00:33.946Z,7.54
2022-08-29T05:01:55.866Z,7.21
2022-08-29T05:03:17.496Z,7.78
2022-08-29T05:04:38.676Z,7.23
2022-08-29T05:06:07.783Z,7.02
2022-08-29T05:07:31.974Z,6.50
2022-08-29T05:08:59.823Z,6.92
2022-08-29T05:10:19.912Z,7.44
2022-08-29T05:11:41.312Z,7.33
2022-08-29T05:13:04.553Z,6.97
2022-08-29T05:14:27.254Z,6.95
2022-08-29T05:15:48.878Z,6.68
2022-08-29T05:17:10.158Z,6.27
2022-08-29T05:18:33.828Z,7.04
2022-08-29T05:19:55.355Z,6.73
2022-08-29T05:21:34.985Z,6.64
2022-08-29T05:22:54.985Z,6.45
2022-08-29T05:24:16.057Z,7.08
2022-08-29T05:25:37.875Z,7.39
2022-08-29T05:28:11.621Z,6.91
2022-08-29T05:30:55.035Z,7.50
2022-08-29T05:32:16.667Z,5.39
2022-08-29T05:33:38.053Z,6.84
2022-08-29T05:34:59.793Z,6.94
2022-08-29T05:36:21.728Z,7.29
2022-08-29T05:37:42.944Z,7.80
2022-08-29T05:39:04.828Z,7.41
2022-08-29T05:40:28.843Z,7.43
2022-08-29T05:41:50.169Z,7.67
2022-08-29T05:43:11.775Z,7.53
2022-08-29T05:44:35.523Z,7.35
2022-08-29T05:46:07.578Z,7.45
2022-08-29T05:47:30.612Z,7.59
2022-08-29T05:48:51.865Z,7.28
2022-08-29T05:50:14.051Z,7.55
2022-08-29T05:52:46.609Z,7.16
2022-08-29T05:54:09.857Z,8.07
2022-08-29T05:55:31.437Z,7.99
2022-08-29T05:56:52.892Z,7.76
2022-08-29T05:58:14.535Z,8.04
2022-08-29T05:59:36.369Z,7.97
2022-08-29T06:00:57.929Z,7.51
2022-08-29T06:02:21.368Z,8.34
2022-08-29T06:03:46.056Z,7.69
2022-08-29T06:05:10.759Z,7.65
2022-08-29T06:06:34.115Z,7.89
2022-08-29T06:07:57.139Z,7.57
2022-08-29T06:09:18.855Z,8.41
2022-08-29T06:10:41.819Z,7.89
2022-08-29T06:12:06.462Z,7.87
2022-08-29T06:13:28.029Z,8.19
2022-08-29T06:14:50.073Z,8.20
2022-08-29T06:16:14.694Z,8.24
2022-08-29T06:17:37.347Z,7.82
2022-08-29T06:18:59.216Z,7.49
2022-08-29T06:20:22.321Z,8.31
2022-08-29T06:21:45.158Z,7.90
2022-08-29T06:23:06.832Z,7.51
2022-08-29T06:24:29.828Z,7.72
2022-08-29T06:25:57.635Z,7.70
2022-08-29T06:27:18.991Z,7.67
2022-08-29T06:28:43.201Z,7.87
2022-08-29T06:30:06.034Z,7.19
2022-08-29T06:32:49.040Z,8.47
2022-08-29T06:34:10.702Z,7.81
2022-08-29T06:35:32.048Z,7.87
2022-08-29T06:36:53.548Z,8.46
2022-08-29T06:38:17.300Z,8.83
2022-08-29T06:39:40.947Z,8.38
2022-08-29T06:41:06.764Z,8.20
2022-08-29T06:42:28.665Z,7.83
2022-08-29T06:43:50.987Z,8.41
2022-08-29T06:45:16.204Z,8.00
2022-08-29T06:46:42.884Z,8.08
2022-08-29T06:48:04.739Z,7.81
2022-08-29T06:49:26.631Z,7.65
2022-08-29T06:50:49.077Z,8.21
2022-08-29T06:52:10.187Z,8.27
2022-08-29T06:53:32.808Z,7.99
2022-08-29T06:56:17.403Z,7.58
2022-08-29T06:57:40.007Z,6.51
2022-08-29T06:59:03.670Z,6.84
2022-08-29T07:00:25.919Z,6.91
2022-08-29T07:01:47.199Z,7.49
2022-08-29T07:03:10.718Z,7.01
2022-08-29T07:04:32.125Z,7.67
2022-08-29T07:05:53.548Z,7.51
2022-08-29T07:07:14.848Z,7.07
2022-08-29T07:08:42.150Z,7.42
2022-08-29T07:10:02.951Z,6.65
2022-08-29T07:11:26.972Z,7.36
2022-08-29T07:12:48.845Z,7.52
2022-08-29T07:14:10.501Z,7.14
2022-08-29T07:15:32.643Z,6.81
2022-08-29T07:16:54.581Z,6.78
2022-08-29T07:18:16.039Z,6.72
2022-08-29T07:19:38.083Z,7.22
2022-08-29T07:20:59.927Z,7.62
2022-08-29T07:22:21.556Z,6.81
2022-08-29T07:23:42.754Z,6.83
2022-08-29T07:25:07.170Z,7.51
2022-08-29T07:26:30.537Z,7.12
2022-08-29T07:27:53.446Z,6.71
2022-08-29T07:29:17.676Z,7.23
2022-08-29T07:30:39.538Z,6.77
2022-08-29T07:32:01.485Z,7.17
2022-08-29T07:33:23.048Z,8.29
2022-08-29T07:34:44.549Z,7.49
2022-08-29T07:36:06.941Z,7.20
2022-08-29T07:38:41.472Z,6.79
2022-08-29T07:40:13.528Z,5.99
2022-08-29T07:41:58.565Z,5.95
2022-08-29T07:43:27.764Z,6.79
2022-08-29T07:44:50.098Z,6.24
2022-08-29T07:47:35.306Z,6.08
2022-08-29T07:48:58.340Z,6.08
2022-08-29T07:50:22.535Z,5.76
2022-08-29T07:51:47.522Z,6.34
2022-08-29T07:53:09.200Z,6.31
2022-08-29T07:54:30.891Z,6.18
2022-08-29T07:55:52.315Z,7.13
2022-08-29T07:58:45.680Z,6.65
2022-08-29T08:00:09.301Z,5.86
2022-08-29T08:01:31.070Z,6.34
2022-08-29T08:02:53.625Z,5.99
2022-08-29T08:04:17.987Z,6.02
2022-08-29T08:05:43.014Z,6.62
2022-08-29T08:07:05.034Z,6.21
2022-08-29T08:08:29.669Z,6.48
2022-08-29T08:09:53.078Z,6.52
2022-08-29T08:11:17.186Z,6.84
2022-08-29T08:12:39.923Z,6.84
2022-08-29T08:14:04.872Z,7.11
2022-08-29T08:15:29.000Z,6.40
2022-08-29T08:16:51.260Z,6.11
2022-08-29T08:18:24.725Z,7.45
2022-08-29T08:21:09.842Z,6.43
2022-08-29T08:22:34.857Z,6.58
2022-08-29T08:23:58.056Z,6.96
2022-08-29T08:25:19.597Z,6.41
2022-08-29T08:26:43.143Z,6.62
2022-08-29T08:28:04.667Z,7.46
2022-08-29T08:29:27.450Z,7.12
2022-08-29T08:30:48.649Z,7.20
2022-08-29T08:32:11.055Z,6.90
2022-08-29T08:33:37.840Z,6.99
2022-08-29T08:35:00.853Z,7.31
2022-08-29T08:36:28.929Z,7.20
2022-08-29T08:37:50.747Z,7.57
2022-08-29T08:39:15.028Z,7.01
2022-08-29T08:42:24.722Z,7.47
2022-08-29T08:45:43.321Z,6.68
2022-08-29T08:47:07.098Z,6.81
2022-08-29T08:48:42.821Z,7.53
2022-08-29T08:52:07.428Z,6.75
2022-08-29T09:05:53.551Z,5.32
2022-08-29T09:09:03.453Z,5.54
2022-08-29T09:11:57.608Z,6.09
2022-08-29T09:13:53.677Z,5.52
2022-08-29T09:17:06.441Z,6.31
2022-08-29T09:19:50.735Z,5.17
2022-08-29T09:22:45.222Z,5.54
2022-08-29T09:24:14.417Z,6.44
2022-08-29T09:25:38.102Z,5.28
2022-08-29T09:27:04.085Z,5.59
2022-08-29T09:28:25.354Z,5.69
2022-08-29T09:30:09.408Z,5.71
2022-08-29T09:31:34.673Z,4.87
2022-08-29T09:33:09.601Z,4.81
2022-08-29T09:35:04.885Z,5.12
2022-08-29T09:36:04.405Z,4.63
2022-08-29T09:37:31.907Z,4.92
2022-08-29T09:40:49.154Z,4.67
2022-08-29T09:42:19.100Z,5.07
2022-08-29T09:43:47.543Z,5.24
2022-08-29T09:45:20.575Z,4.95
2022-08-29T09:48:21.598Z,4.59
2022-08-29T09:50:04.767Z,4.47
2022-08-29T09:51:33.392Z,4.39
2022-08-29T09:53:03.264Z,5.29
2022-08-29T09:54:28.973Z,7.60
2022-08-29T09:57:13.798Z,4.51
2022-08-29T09:58:40.231Z,4.66
2022-08-29T10:02:28.368Z,4.03
2022-08-29T10:03:59.516Z,3.72
2022-08-29T10:05:39.582Z,3.96
2022-08-29T10:07:24.733Z,3.92
2022-08-29T10:13:08.913Z,4.11
2022-08-29T10:14:38.134Z,4.03
2022-08-29T10:17:51.381Z,4.19
2022-08-29T10:19:24.795Z,4.29
2022-08-29T10:20:50.221Z,4.22
2022-08-29T10:22:43.568Z,4.71
2022-08-29T10:24:24.908Z,4.38
2022-08-29T10:25:49.380Z,4.03
2022-08-29T10:27:34.353Z,4.41
2022-08-29T10:29:26.562Z,4.34
2022-08-29T10:33:31.007Z,4.43
2022-08-29T10:36:37.534Z,4.65
2022-08-29T10:38:39.017Z,4.48
2022-08-29T10:40:08.384Z,4.76
2022-08-29T10:42:00.545Z,5.14
2022-08-29T10:43:28.803Z,4.80
2022-08-29T10:45:14.449Z,4.67
2022-08-29T10:46:50.380Z,5.61
2022-08-29T10:48:15.513Z,5.14
2022-08-29T10:50:27.583Z,4.29
2022-08-29T10:51:58.450Z,9.89
2022-08-29T10:55:30.030Z,9.86
2022-08-29T10:56:53.673Z,6.43
2022-08-29T10:58:19.341Z,5.68
2022-08-29T11:01:24.826Z,5.63
2022-08-29T11:04:23.908Z,4.74
2022-08-29T11:06:00.467Z,5.11
2022-08-29T11:07:28.962Z,6.39
2022-08-29T11:10:24.242Z,4.06
2022-08-29T11:13:49.625Z,5.00
2022-08-29T11:15:28.660Z,4.16
2022-08-29T11:16:58.541Z,4.38
2022-08-29T11:18:42.057Z,4.64
2022-08-29T11:20:18.582Z,4.72
2022-08-29T11:21:52.603Z,4.80
2022-08-29T11:37:29.302Z,5.08
2022-08-29T11:39:20.640Z,4.73
2022-08-29T11:42:51.030Z,4.69
2022-08-29T11:44:08.314Z,5.43
2022-08-29T11:45:36.957Z,4.88
2022-08-29T11:46:57.183Z,4.83
2022-08-29T11:51:36.217Z,5.41
2022-08-29T11:53:24.572Z,4.78
2022-08-29T11:56:23.529Z,5.14
2022-08-29T11:57:48.906Z,5.46
2022-08-29T11:59:10.660Z,5.92
2022-08-29T12:00:50.707Z,5.81
2022-08-29T12:02:49.639Z,5.24
2022-08-29T12:06:00.857Z,6.12
2022-08-29T12:07:25.662Z,6.47
2022-08-29T12:08:53.886Z,6.93
2022-08-29T12:12:09.027Z,6.19
2022-08-29T12:13:51.323Z,5.95
2022-08-29T12:15:35.701Z,7.43
2022-08-29T12:17:01.761Z,7.64
2022-08-29T12:18:34.651Z,6.54
2022-08-29T12:20:08.526Z,6.85
2022-08-29T12:21:43.397Z,5.92
2022-08-29T12:23:16.335Z,5.35
2022-08-29T12:24:57.286Z,5.51
2022-08-29T12:26:48.026Z,5.16
2022-08-29T12:28:25.631Z,5.69
2022-08-29T12:29:49.058Z,5.34
2022-08-29T12:31:27.295Z,5.26
2022-08-29T12:32:59.021Z,5.02
2022-08-29T12:34:36.401Z,4.59
2022-08-29T12:36:15.867Z,4.91
2022-08-29T12:38:16.048Z,5.18
2022-08-29T12:39:59.033Z,4.43
2022-08-29T12:41:53.424Z,4.51
2022-08-29T12:43:30.103Z,4.38
2022-08-29T12:45:10.309Z,4.42
2022-08-29T12:46:35.474Z,4.78
2022-08-29T12:47:59.946Z,4.30
2022-08-29T12:49:32.158Z,4.71
2022-08-29T12:52:23.621Z,4.34
2022-08-29T12:53:52.072Z,4.51
2022-08-29T12:55:28.808Z,5.45
2022-08-29T12:56:49.419Z,5.24
2022-08-29T12:58:12.432Z,4.94
2022-08-29T12:59:38.491Z,5.17
2022-08-29T13:01:03.575Z,4.52
2022-08-29T13:02:35.386Z,4.70
2022-08-29T13:04:12.250Z,4.72
2022-08-29T13:05:42.228Z,4.91
2022-08-29T13:34:19.234Z,4.56
2022-08-29T13:47:30.463Z,3.87
2022-08-29T13:50:23.069Z,4.36
2022-08-29T13:51:47.180Z,4.57
2022-08-29T13:53:09.065Z,4.53
2022-08-29T13:54:33.649Z,4.78
2022-08-29T14:07:31.969Z,4.27
2022-08-29T14:08:54.630Z,4.28
2022-08-29T14:10:17.285Z,4.76
2022-08-29T14:23:55.745Z,5.00
2022-08-29T14:27:01.137Z,5.27
2022-08-29T14:28:25.114Z,5.42
2022-08-29T14:29:49.722Z,5.92
2022-08-29T14:31:14.052Z,6.19
2022-08-29T14:34:04.430Z,6.05
2022-08-29T14:35:33.526Z,5.86
2022-08-29T14:36:57.069Z,6.34
2022-08-29T14:38:18.951Z,6.35
2022-08-29T14:39:41.557Z,6.59
2022-08-29T14:41:03.707Z,6.52
2022-08-29T14:42:25.593Z,5.90
2022-08-29T14:43:48.143Z,6.36
2022-08-29T14:45:12.725Z,7.01
2022-08-29T14:46:34.681Z,6.39
2022-08-29T14:47:56.086Z,6.27
2022-08-29T14:49:17.576Z,6.18
2022-08-29T14:50:39.344Z,6.54
2022-08-29T14:52:01.533Z,6.71
2022-08-29T14:53:23.991Z,6.78
2022-08-29T14:56:11.757Z,6.95
2022-08-29T14:57:37.721Z,6.50
2022-08-29T14:59:02.047Z,6.29
2022-08-29T15:00:29.263Z,6.50
2022-08-29T15:01:55.484Z,5.98
2022-08-29T15:03:20.039Z,6.60
2022-08-29T15:04:42.029Z,7.22
2022-08-29T15:06:11.300Z,6.14
2022-08-29T15:07:39.249Z,6.05
2022-08-29T15:10:18.477Z,5.99
2022-08-29T15:11:39.917Z,5.89
2022-08-29T15:13:04.067Z,6.17
2022-08-29T15:14:28.045Z,6.56
2022-08-29T15:15:49.412Z,5.84
2022-08-29T15:17:11.393Z,5.81
2022-08-29T15:19:14.829Z,5.60
2022-08-29T15:21:23.674Z,6.55
2022-08-29T15:22:45.795Z,6.31
2022-08-29T15:24:10.600Z,6.20
2022-08-29T15:26:47.705Z,6.63
2022-08-29T15:29:55.268Z,7.04
2022-08-29T15:31:20.696Z,6.74
2022-08-29T15:34:04.474Z,7.77
2022-08-29T15:35:27.520Z,6.64
2022-08-29T15:36:49.197Z,6.22
2022-08-29T15:38:11.632Z,5.48
2022-08-29T15:39:33.730Z,5.16
2022-08-29T15:40:55.628Z,4.91
2022-08-29T15:42:19.334Z,5.04
2022-08-29T15:43:42.024Z,5.01
2022-08-29T15:45:08.001Z,4.85
2022-08-29T15:46:37.975Z,5.10
2022-08-29T15:47:59.055Z,4.62
2022-08-29T15:49:21.482Z,4.76
2022-08-29T15:50:43.674Z,4.71
2022-08-29T15:52:05.814Z,4.69
2022-08-29T15:53:28.559Z,4.23
2022-08-29T15:54:50.897Z,4.04
2022-08-29T15:56:16.822Z,4.60
2022-08-29T15:57:51.656Z,4.38
2022-08-29T15:59:07.577Z,4.51
2022-08-29T16:00:31.280Z,4.71
2022-08-29T16:01:55.780Z,4.57
2022-08-29T16:03:23.290Z,4.47
2022-08-29T16:04:48.382Z,4.75
2022-08-29T16:06:11.804Z,4.58
2022-08-29T16:07:34.706Z,4.65
2022-08-29T16:08:58.771Z,4.40
2022-08-29T16:10:20.691Z,4.21
2022-08-29T16:11:43.989Z,4.15
2022-08-29T16:13:08.318Z,4.59
2022-08-29T16:15:09.761Z,4.63
2022-08-29T16:16:02.964Z,5.52
2022-08-29T16:17:27.693Z,4.46
2022-08-29T16:18:49.296Z,4.76
2022-08-29T16:20:11.468Z,4.74
2022-08-29T16:21:33.809Z,4.23
2022-08-29T16:22:56.697Z,4.71
2022-08-29T16:24:21.364Z,4.58
2022-08-29T16:25:50.154Z,4.56
2022-08-29T16:27:12.535Z,5.14
2022-08-29T16:28:34.078Z,4.55
2022-08-29T16:29:55.426Z,5.51
2022-08-29T16:31:17.667Z,4.75
2022-08-29T16:32:42.092Z,4.70
2022-08-29T16:34:04.815Z,4.72
2022-08-29T16:35:26.307Z,5.47
2022-08-29T16:36:49.273Z,4.21
2022-08-29T16:38:11.168Z,5.26
2022-08-29T16:39:32.709Z,4.91
2022-08-29T16:42:30.694Z,3.48
2022-08-29T16:43:54.936Z,3.43
2022-08-29T16:46:59.602Z,3.88
2022-08-29T16:49:39.979Z,3.78
2022-08-29T16:51:04.513Z,3.71
2022-08-29T16:52:27.689Z,3.64
2022-08-29T16:53:51.033Z,4.69
2022-08-29T16:55:14.253Z,4.18
2022-08-29T16:56:35.820Z,4.73
2022-08-29T16:57:58.892Z,4.07
2022-08-29T16:59:20.547Z,4.04
2022-08-29T17:00:42.229Z,3.96
2022-08-29T17:02:04.176Z,5.22
2022-08-29T17:03:27.384Z,4.31
2022-08-29T17:04:51.779Z,4.31
2022-08-29T17:06:15.739Z,4.32
2022-08-29T17:07:38.432Z,4.28
2022-08-29T17:09:09.492Z,4.79
2022-08-29T17:10:33.478Z,4.44
2022-08-29T17:13:08.415Z,4.63
2022-08-29T17:14:30.007Z,4.46
2022-08-29T17:15:51.487Z,4.02
2022-08-29T17:17:12.753Z,4.24
2022-08-29T17:18:36.822Z,4.67
2022-08-29T17:19:58.288Z,3.99
2022-08-29T17:21:23.102Z,4.32
2022-08-29T17:22:44.483Z,4.05
2022-08-29T17:24:07.156Z,3.88
2022-08-29T17:25:37.775Z,3.69
2022-08-29T17:26:59.331Z,4.03
2022-08-29T17:29:47.354Z,4.19
2022-08-29T17:31:10.935Z,3.89
2022-08-29T17:32:32.489Z,4.41
2022-08-29T17:33:53.858Z,4.22
2022-08-29T17:35:15.010Z,4.54
2022-08-29T17:36:40.152Z,4.72
2022-08-29T17:38:03.685Z,3.92
2022-08-29T17:39:26.575Z,3.78
2022-08-29T17:40:48.639Z,4.53
2022-08-29T17:42:10.499Z,4.24
2022-08-29T17:43:35.714Z,4.55
2022-08-29T17:44:57.156Z,5.04
2022-08-29T17:46:22.474Z,4.92
2022-08-29T17:47:44.229Z,4.42
2022-08-29T17:50:32.632Z,4.39
2022-08-29T17:51:56.614Z,3.94
2022-08-29T17:53:28.453Z,5.20
2022-08-29T17:54:52.478Z,4.98
2022-08-29T17:57:34.341Z,7.66
2022-08-29T17:58:59.061Z,6.77
2022-08-29T18:00:26.078Z,6.43
2022-08-29T18:02:03.636Z,6.16
2022-08-29T18:03:29.373Z,5.93
2022-08-29T18:04:53.023Z,5.81
2022-08-29T18:06:27.114Z,5.80
2022-08-29T18:07:51.614Z,5.06
2022-08-29T18:09:16.417Z,5.29
2022-08-29T18:10:54.862Z,5.53
2022-08-29T18:12:16.738Z,5.49
2022-08-29T18:13:41.015Z,6.07
2022-08-29T18:15:05.947Z,6.03
2022-08-29T18:16:29.227Z,6.65
2022-08-29T18:17:51.707Z,6.78
2022-08-29T18:19:13.022Z,6.34
2022-08-29T18:20:34.931Z,6.20
2022-08-29T18:21:56.467Z,6.93
2022-08-29T18:23:17.845Z,6.72
2022-08-29T18:24:39.392Z,6.58
2022-08-29T18:26:01.550Z,6.34
2022-08-29T18:27:25.403Z,6.06
2022-08-29T18:28:46.877Z,6.08
2022-08-29T18:30:11.637Z,6.01
2022-08-29T18:31:33.107Z,6.69
2022-08-29T18:32:54.598Z,6.68
2022-08-29T18:34:16.444Z,6.49
2022-08-29T18:35:38.016Z,7.20
2022-08-29T18:37:00.174Z,6.75
2022-08-29T18:38:23.152Z,6.61
2022-08-29T18:39:44.592Z,6.98
2022-08-29T18:41:06.452Z,7.30
2022-08-29T18:42:39.953Z,7.01
2022-08-29T18:43:51.392Z,9.71
2022-08-29T18:45:12.784Z,11.24
2022-08-29T18:46:37.628Z,9.93
2022-08-29T18:47:59.907Z,9.94
2022-08-29T18:49:21.417Z,8.96
2022-08-29T18:50:46.239Z,7.96
2022-08-29T18:52:08.547Z,7.44
2022-08-29T18:53:29.789Z,6.45
2022-08-29T18:54:51.796Z,7.18
2022-08-29T18:56:13.160Z,5.87
2022-08-29T18:57:35.276Z,6.46
2022-08-29T18:58:58.778Z,6.37
2022-08-29T19:00:20.466Z,6.98
2022-08-29T19:01:41.959Z,8.43
2022-08-29T19:03:03.790Z,7.84
2022-08-29T19:05:36.889Z,8.14
2022-08-29T19:07:00.783Z,8.37
2022-08-29T19:08:23.056Z,7.46
2022-08-29T19:09:46.560Z,8.10
2022-08-29T19:11:09.162Z,6.49
2022-08-29T19:12:30.552Z,6.08
2022-08-29T19:13:52.382Z,5.83
2022-08-29T19:15:15.200Z,5.91
2022-08-29T19:16:37.834Z,5.83
2022-08-29T19:17:59.349Z,5.69
2022-08-29T19:19:21.208Z,5.83
2022-08-29T19:20:42.458Z,4.24
2022-08-29T19:22:04.950Z,4.41
2022-08-29T19:23:35.219Z,4.29
2022-08-29T19:24:57.854Z,4.21
2022-08-29T19:26:24.929Z,4.27
2022-08-29T19:27:46.652Z,4.33
2022-08-29T19:29:09.642Z,4.12
2022-08-29T19:31:53.630Z,4.13
2022-08-29T19:33:15.479Z,4.23
2022-08-29T19:34:37.242Z,4.54
2022-08-29T19:35:58.807Z,4.14
2022-08-29T19:37:21.213Z,4.16
2022-08-29T19:38:43.169Z,4.02
2022-08-29T19:40:07.511Z,4.56
2022-08-29T19:41:30.217Z,4.24
2022-08-29T19:42:51.358Z,4.84
2022-08-29T19:44:12.700Z,4.92
2022-08-29T19:45:35.490Z,4.72
2022-08-29T19:46:58.173Z,5.18
2022-08-29T19:48:20.651Z,4.83
2022-08-29T19:49:45.391Z,4.78
2022-08-29T19:52:22.855Z,4.58
2022-08-29T19:53:46.952Z,5.22
2022-08-29T19:55:11.794Z,4.40
2022-08-29T19:56:34.864Z,4.50
2022-08-29T19:57:56.367Z,4.36
2022-08-29T19:59:18.822Z,4.64
2022-08-29T20:00:42.738Z,4.49
2022-08-29T20:02:04.501Z,4.08
2022-08-29T20:03:28.410Z,5.00
2022-08-29T20:04:49.512Z,4.72
2022-08-29T20:06:12.224Z,4.54
2022-08-29T20:07:33.918Z,4.39
2022-08-29T20:08:56.910Z,4.36
2022-08-29T20:10:22.239Z,4.81
2022-08-29T20:11:44.979Z,4.43
2022-08-29T20:13:07.397Z,4.26
2022-08-29T20:14:28.622Z,4.96
2022-08-29T20:15:50.160Z,4.35
2022-08-29T20:17:11.611Z,4.46
2022-08-29T20:18:33.760Z,4.46
2022-08-29T20:19:55.106Z,4.75
2022-08-29T20:21:16.275Z,4.44
2022-08-29T20:22:37.801Z,4.58
2022-08-29T20:23:59.457Z,5.11
2022-08-29T20:25:22.565Z,5.33
2022-08-29T20:26:44.440Z,7.53
2022-08-29T20:28:05.881Z,4.78
2022-08-29T20:29:27.362Z,5.87
2022-08-29T20:30:50.321Z,6.27
2022-08-29T20:32:11.611Z,5.90
2022-08-29T20:33:33.631Z,6.09
2022-08-29T20:34:55.191Z,6.14
2022-08-29T20:37:39.965Z,6.12
2022-08-29T20:39:01.060Z,5.84
2022-08-29T20:40:22.988Z,5.63
2022-08-29T20:43:03.258Z,6.04
2022-08-29T20:44:29.091Z,5.53
2022-08-29T20:45:49.291Z,5.56
2022-08-29T20:47:13.888Z,6.26
2022-08-29T20:48:35.445Z,5.93
2022-08-29T20:49:57.142Z,5.92
2022-08-29T20:51:18.578Z,6.19
2022-08-29T20:52:40.116Z,6.32
2022-08-29T20:54:01.157Z,6.29
2022-08-29T20:55:22.320Z,6.43
2022-08-29T20:56:44.320Z,6.77
2022-08-29T20:58:06.023Z,6.27
2022-08-29T20:59:29.521Z,6.22
2022-08-29T21:00:50.746Z,7.12
2022-08-29T21:02:12.138Z,6.54
2022-08-29T21:03:33.623Z,6.46
2022-08-29T21:04:54.871Z,6.22
2022-08-29T21:06:18.231Z,6.13
2022-08-29T21:07:41.456Z,6.63
2022-08-29T21:09:04.118Z,6.67
2022-08-29T21:10:25.913Z,6.77
2022-08-29T21:11:47.816Z,6.74
2022-08-29T21:13:09.172Z,7.13
2022-08-29T21:14:30.618Z,6.88
2022-08-29T21:15:51.978Z,7.13
2022-08-29T21:17:15.008Z,6.46
2022-08-29T21:18:36.337Z,6.43
2022-08-29T21:19:57.945Z,7.06
2022-08-29T21:21:21.991Z,7.04
2022-08-29T21:22:43.411Z,7.13
2022-08-29T21:24:05.291Z,7.30
2022-08-29T21:25:26.462Z,7.05
2022-08-29T21:26:48.040Z,7.25
2022-08-29T21:28:09.358Z,7.58
2022-08-29T21:29:31.715Z,7.84
2022-08-29T21:30:53.175Z,7.73
2022-08-29T21:32:14.395Z,6.89
2022-08-29T21:33:37.106Z,8.06
2022-08-29T21:34:58.418Z,7.57
2022-08-29T21:36:22.467Z,8.32
2022-08-29T21:39:05.892Z,8.11
2022-08-29T21:40:29.166Z,7.88
2022-08-29T21:41:50.430Z,7.98
2022-08-29T21:43:13.271Z,7.56
2022-08-29T21:44:34.915Z,8.40
2022-08-29T21:45:57.487Z,8.50
2022-08-29T21:47:19.096Z,7.81
2022-08-29T21:48:40.583Z,7.82
2022-08-29T21:50:03.549Z,8.81
2022-08-29T21:51:25.708Z,8.41
2022-08-29T21:52:47.154Z,6.44
2022-08-29T21:54:13.221Z,8.40
2022-08-29T21:55:33.167Z,8.38
2022-08-29T21:56:54.936Z,8.53
2022-08-29T21:58:16.707Z,8.25
2022-08-29T21:59:38.222Z,8.66